sensor_id;sensor_type;location;lat;lon;timestamp;temperature;humidity
13344;DHT22;6741;48.964;9.406;2024-03-02T00:00:39;3.30;99.90
13344;DHT22;6741;48.964;9.406;2024-03-02T00:03:07;3.30;99.90
13344;DHT22;6741;48.964;9.406;2024-03-02T00:05:36;3.30;99.90
13344;DHT22;6741;48.964;9.406;2024-03-02T00:08:05;3.20;99.90
13344;DHT22;6741;48.964;9.406;2024-03-02T00:10:36;3.30;99.90
13344;DHT22;6741;48.964;9.406;2024-03-02T00:13:05;3.40;99.90
13344;DHT22;6741;48.964;9.406;2024-03-02T00:15:43;3.40;99.90
13344;DHT22;6741;48.964;9.406;2024-03-02T00:18:14;3.40;99.90
13344;DHT22;6741;48.964;9.406;2024-03-02T00:20:42;3.30;99.90
13344;DHT22;6741;48.964;9.406;2024-03-02T00:23:09;3.30;99.90
13344;DHT22;6741;48.964;9.406;2024-03-02T00:25:38;3.20;99.90
13344;DHT22;6741;48.964;9.406;2024-03-02T00:28:14;3.20;99.90
13344;DHT22;6741;48.964;9.406;2024-03-02T00:30:52;3.20;99.90
13344;DHT22;6741;48.964;9.406;2024-03-02T00:33:21;3.20;99.90
13344;DHT22;6741;48.964;9.406;2024-03-02T00:35:50;3.10;99.90
13344;DHT22;6741;48.964;9.406;2024-03-02T00:38:17;3.20;99.90
13344;DHT22;6741;48.964;9.406;2024-03-02T00:40:45;3.20;99.90
13344;DHT22;6741;48.964;9.406;2024-03-02T00:43:43;3.20;99.90
13344;DHT22;6741;48.964;9.406;2024-03-02T00:46:13;3.30;99.90
13344;DHT22;6741;48.964;9.406;2024-03-02T00:48:53;3.20;99.90
13344;DHT22;6741;48.964;9.406;2024-03-02T00:51:22;3.10;99.90
13344;DHT22;6741;48.964;9.406;2024-03-02T00:53:50;3.10;99.90
13344;DHT22;6741;48.964;9.406;2024-03-02T00:56:18;3.00;99.90
13344;DHT22;6741;48.964;9.406;2024-03-02T00:58:45;3.00;99.90
13344;DHT22;6741;48.964;9.406;2024-03-02T01:01:11;3.00;99.90
13344;DHT22;6741;48.964;9.406;2024-03-02T01:03:39;2.90;99.90
13344;DHT22;6741;48.964;9.406;2024-03-02T01:06:07;2.90;99.90
13344;DHT22;6741;48.964;9.406;2024-03-02T01:08:35;3.00;99.90
13344;DHT22;6741;48.964;9.406;2024-03-02T01:11:03;2.90;99.90
13344;DHT22;6741;48.964;9.406;2024-03-02T01:13:30;3.00;99.90
13344;DHT22;6741;48.964;9.406;2024-03-02T01:15:57;3.00;99.90
13344;DHT22;6741;48.964;9.406;2024-03-02T01:18:25;3.00;99.90
13344;DHT22;6741;48.964;9.406;2024-03-02T01:20:52;3.00;99.90
13344;DHT22;6741;48.964;9.406;2024-03-02T01:23:21;3.00;99.90
13344;DHT22;6741;48.964;9.406;2024-03-02T01:25:49;3.00;99.90
13344;DHT22;6741;48.964;9.406;2024-03-02T01:28:17;3.10;99.90
13344;DHT22;6741;48.964;9.406;2024-03-02T01:30:44;3.10;99.90
13344;DHT22;6741;48.964;9.406;2024-03-02T01:33:11;3.20;99.90
13344;DHT22;6741;48.964;9.406;2024-03-02T01:35:38;3.10;99.90
13344;DHT22;6741;48.964;9.406;2024-03-02T01:38:04;3.10;99.90
13344;DHT22;6741;48.964;9.406;2024-03-02T01:40:33;3.10;99.90
13344;DHT22;6741;48.964;9.406;2024-03-02T01:43:01;3.10;99.90
13344;DHT22;6741;48.964;9.406;2024-03-02T01:45:29;3.10;99.90
13344;DHT22;6741;48.964;9.406;2024-03-02T01:47:55;3.00;99.90
13344;DHT22;6741;48.964;9.406;2024-03-02T01:50:27;3.00;99.90
13344;DHT22;6741;48.964;9.406;2024-03-02T01:52:54;2.90;99.90
13344;DHT22;6741;48.964;9.406;2024-03-02T01:55:21;2.90;99.90
13344;DHT22;6741;48.964;9.406;2024-03-02T01:57:48;3.00;99.90
13344;DHT22;6741;48.964;9.406;2024-03-02T02:00:20;3.00;99.90
13344;DHT22;6741;48.964;9.406;2024-03-02T02:02:48;2.90;99.90
13344;DHT22;6741;48.964;9.406;2024-03-02T02:05:15;2.90;99.90
13344;DHT22;6741;48.964;9.406;2024-03-02T02:07:43;3.00;99.90
13344;DHT22;6741;48.964;9.406;2024-03-02T02:10:10;2.90;99.90
13344;DHT22;6741;48.964;9.406;2024-03-02T02:12:37;3.00;99.90
13344;DHT22;6741;48.964;9.406;2024-03-02T02:15:23;2.90;99.90
13344;DHT22;6741;48.964;9.406;2024-03-02T02:17:50;2.90;99.90
13344;DHT22;6741;48.964;9.406;2024-03-02T02:20:17;2.90;99.90
13344;DHT22;6741;48.964;9.406;2024-03-02T02:22:55;3.00;99.90
13344;DHT22;6741;48.964;9.406;2024-03-02T02:25:22;3.00;99.90
13344;DHT22;6741;48.964;9.406;2024-03-02T02:27:50;3.00;99.90
13344;DHT22;6741;48.964;9.406;2024-03-02T02:30:19;3.00;99.90
13344;DHT22;6741;48.964;9.406;2024-03-02T02:32:46;2.90;99.90
13344;DHT22;6741;48.964;9.406;2024-03-02T02:35:13;2.90;99.90
13344;DHT22;6741;48.964;9.406;2024-03-02T02:37:40;2.80;99.90
13344;DHT22;6741;48.964;9.406;2024-03-02T02:40:10;2.80;99.90
13344;DHT22;6741;48.964;9.406;2024-03-02T02:42:37;2.70;99.90
13344;DHT22;6741;48.964;9.406;2024-03-02T02:45:04;2.60;99.90
13344;DHT22;6741;48.964;9.406;2024-03-02T02:47:31;2.50;99.90
13344;DHT22;6741;48.964;9.406;2024-03-02T02:50:00;2.50;99.90
13344;DHT22;6741;48.964;9.406;2024-03-02T02:52:31;2.50;99.90
13344;DHT22;6741;48.964;9.406;2024-03-02T02:54:58;2.60;99.90
13344;DHT22;6741;48.964;9.406;2024-03-02T02:57:27;2.60;99.90
13344;DHT22;6741;48.964;9.406;2024-03-02T02:59:55;2.70;99.90
13344;DHT22;6741;48.964;9.406;2024-03-02T03:02:22;2.70;99.90
13344;DHT22;6741;48.964;9.406;2024-03-02T03:04:49;2.70;99.90
13344;DHT22;6741;48.964;9.406;2024-03-02T03:07:16;2.70;99.90
13344;DHT22;6741;48.964;9.406;2024-03-02T03:09:43;2.70;99.90
13344;DHT22;6741;48.964;9.406;2024-03-02T03:12:10;2.70;99.90
13344;DHT22;6741;48.964;9.406;2024-03-02T03:14:40;2.70;99.90
13344;DHT22;6741;48.964;9.406;2024-03-02T03:17:07;2.60;99.90
13344;DHT22;6741;48.964;9.406;2024-03-02T03:19:34;2.50;99.90
13344;DHT22;6741;48.964;9.406;2024-03-02T03:22:01;2.50;99.90
13344;DHT22;6741;48.964;9.406;2024-03-02T03:24:29;2.40;99.90
13344;DHT22;6741;48.964;9.406;2024-03-02T03:26:55;2.40;99.90
13344;DHT22;6741;48.964;9.406;2024-03-02T03:29:22;2.40;99.90
13344;DHT22;6741;48.964;9.406;2024-03-02T03:31:51;2.40;99.90
13344;DHT22;6741;48.964;9.406;2024-03-02T03:34:18;2.30;99.90
13344;DHT22;6741;48.964;9.406;2024-03-02T03:36:44;2.30;99.90
13344;DHT22;6741;48.964;9.406;2024-03-02T03:39:11;2.30;99.90
13344;DHT22;6741;48.964;9.406;2024-03-02T03:41:39;2.40;99.90
13344;DHT22;6741;48.964;9.406;2024-03-02T03:44:06;2.40;99.90
13344;DHT22;6741;48.964;9.406;2024-03-02T03:46:33;2.40;99.90
13344;DHT22;6741;48.964;9.406;2024-03-02T03:49:01;2.30;99.90
13344;DHT22;6741;48.964;9.406;2024-03-02T03:51:29;2.20;99.90
13344;DHT22;6741;48.964;9.406;2024-03-02T03:53:56;2.20;99.90
13344;DHT22;6741;48.964;9.406;2024-03-02T03:56:23;2.00;99.90
13344;DHT22;6741;48.964;9.406;2024-03-02T03:58:50;2.00;99.90
13344;DHT22;6741;48.964;9.406;2024-03-02T04:01:17;1.90;99.90
13344;DHT22;6741;48.964;9.406;2024-03-02T04:03:45;1.90;99.90
13344;DHT22;6741;48.964;9.406;2024-03-02T04:06:13;1.90;99.90
13344;DHT22;6741;48.964;9.406;2024-03-02T04:08:42;1.90;99.90
13344;DHT22;6741;48.964;9.406;2024-03-02T04:11:08;1.90;99.90
13344;DHT22;6741;48.964;9.406;2024-03-02T04:13:35;1.90;99.90
13344;DHT22;6741;48.964;9.406;2024-03-02T04:16:03;2.00;99.90
13344;DHT22;6741;48.964;9.406;2024-03-02T04:18:30;2.00;99.90
13344;DHT22;6741;48.964;9.406;2024-03-02T04:20:57;2.00;99.90
13344;DHT22;6741;48.964;9.406;2024-03-02T04:23:26;2.00;99.90
13344;DHT22;6741;48.964;9.406;2024-03-02T04:25:53;2.00;99.90
13344;DHT22;6741;48.964;9.406;2024-03-02T04:28:19;1.90;99.90
13344;DHT22;6741;48.964;9.406;2024-03-02T04:30:46;1.90;99.90
13344;DHT22;6741;48.964;9.406;2024-03-02T04:33:13;1.90;99.90
13344;DHT22;6741;48.964;9.406;2024-03-02T04:35:40;1.90;99.90
13344;DHT22;6741;48.964;9.406;2024-03-02T04:38:07;2.00;99.90
13344;DHT22;6741;48.964;9.406;2024-03-02T04:40:35;1.90;99.90
13344;DHT22;6741;48.964;9.406;2024-03-02T04:43:02;1.90;99.90
13344;DHT22;6741;48.964;9.406;2024-03-02T04:45:29;1.90;99.90
13344;DHT22;6741;48.964;9.406;2024-03-02T04:47:56;2.00;99.90
13344;DHT22;6741;48.964;9.406;2024-03-02T04:50:23;2.00;99.90
13344;DHT22;6741;48.964;9.406;2024-03-02T04:52:50;2.00;99.90
13344;DHT22;6741;48.964;9.406;2024-03-02T04:55:16;2.10;99.90
13344;DHT22;6741;48.964;9.406;2024-03-02T04:57:56;2.00;99.90
13344;DHT22;6741;48.964;9.406;2024-03-02T05:00:23;1.90;99.90
13344;DHT22;6741;48.964;9.406;2024-03-02T05:02:50;1.80;99.90
13344;DHT22;6741;48.964;9.406;2024-03-02T05:05:16;1.80;99.90
13344;DHT22;6741;48.964;9.406;2024-03-02T05:07:43;1.80;99.90
13344;DHT22;6741;48.964;9.406;2024-03-02T05:10:10;1.80;99.90
13344;DHT22;6741;48.964;9.406;2024-03-02T05:12:38;1.80;99.90
13344;DHT22;6741;48.964;9.406;2024-03-02T05:15:23;1.80;99.90
13344;DHT22;6741;48.964;9.406;2024-03-02T05:17:50;1.90;99.90
13344;DHT22;6741;48.964;9.406;2024-03-02T05:20:17;2.00;99.90
13344;DHT22;6741;48.964;9.406;2024-03-02T05:22:44;2.00;99.90
13344;DHT22;6741;48.964;9.406;2024-03-02T05:25:12;2.00;99.90
13344;DHT22;6741;48.964;9.406;2024-03-02T05:27:39;2.10;99.90
13344;DHT22;6741;48.964;9.406;2024-03-02T05:30:07;2.10;99.90
13344;DHT22;6741;48.964;9.406;2024-03-02T05:32:36;2.10;99.90
13344;DHT22;6741;48.964;9.406;2024-03-02T05:35:03;2.10;99.90
13344;DHT22;6741;48.964;9.406;2024-03-02T05:37:30;2.10;99.90
13344;DHT22;6741;48.964;9.406;2024-03-02T05:39:57;2.00;99.90
13344;DHT22;6741;48.964;9.406;2024-03-02T05:42:24;2.10;99.90
13344;DHT22;6741;48.964;9.406;2024-03-02T05:44:52;2.20;99.90
13344;DHT22;6741;48.964;9.406;2024-03-02T05:47:19;2.10;99.90
13344;DHT22;6741;48.964;9.406;2024-03-02T05:49:47;2.10;99.90
13344;DHT22;6741;48.964;9.406;2024-03-02T05:52:14;2.00;99.90
13344;DHT22;6741;48.964;9.406;2024-03-02T05:54:41;2.00;99.90
13344;DHT22;6741;48.964;9.406;2024-03-02T05:57:08;2.00;99.90
13344;DHT22;6741;48.964;9.406;2024-03-02T05:59:57;2.00;99.90
13344;DHT22;6741;48.964;9.406;2024-03-02T06:02:24;2.00;99.90
13344;DHT22;6741;48.964;9.406;2024-03-02T06:04:54;2.00;99.90
13344;DHT22;6741;48.964;9.406;2024-03-02T06:07:20;2.00;99.90
13344;DHT22;6741;48.964;9.406;2024-03-02T06:09:47;2.10;99.90
13344;DHT22;6741;48.964;9.406;2024-03-02T06:12:17;2.10;99.90
13344;DHT22;6741;48.964;9.406;2024-03-02T06:14:44;2.00;99.90
13344;DHT22;6741;48.964;9.406;2024-03-02T06:17:11;2.00;99.90
13344;DHT22;6741;48.964;9.406;2024-03-02T06:19:38;2.00;99.90
13344;DHT22;6741;48.964;9.406;2024-03-02T06:22:07;2.00;99.90
13344;DHT22;6741;48.964;9.406;2024-03-02T06:24:36;2.00;99.90
13344;DHT22;6741;48.964;9.406;2024-03-02T06:27:03;1.90;99.90
13344;DHT22;6741;48.964;9.406;2024-03-02T06:29:32;2.00;99.90
13344;DHT22;6741;48.964;9.406;2024-03-02T06:31:59;2.10;99.90
13344;DHT22;6741;48.964;9.406;2024-03-02T06:34:26;2.10;99.90
13344;DHT22;6741;48.964;9.406;2024-03-02T06:36:57;2.10;99.90
13344;DHT22;6741;48.964;9.406;2024-03-02T06:39:26;2.00;99.90
13344;DHT22;6741;48.964;9.406;2024-03-02T06:41:52;1.90;99.90
13344;DHT22;6741;48.964;9.406;2024-03-02T06:44:19;1.90;99.90
13344;DHT22;6741;48.964;9.406;2024-03-02T06:46:46;2.00;99.90
13344;DHT22;6741;48.964;9.406;2024-03-02T06:49:13;2.00;99.90
13344;DHT22;6741;48.964;9.406;2024-03-02T06:51:40;2.20;99.90
13344;DHT22;6741;48.964;9.406;2024-03-02T06:54:08;2.20;99.90
13344;DHT22;6741;48.964;9.406;2024-03-02T06:56:36;2.20;99.90
13344;DHT22;6741;48.964;9.406;2024-03-02T06:59:04;2.20;99.90
13344;DHT22;6741;48.964;9.406;2024-03-02T07:01:31;2.10;99.90
13344;DHT22;6741;48.964;9.406;2024-03-02T07:03:57;2.10;99.90
13344;DHT22;6741;48.964;9.406;2024-03-02T07:06:24;2.10;99.90
13344;DHT22;6741;48.964;9.406;2024-03-02T07:08:51;2.20;99.90
13344;DHT22;6741;48.964;9.406;2024-03-02T07:11:18;2.30;99.90
13344;DHT22;6741;48.964;9.406;2024-03-02T07:13:46;2.30;99.90
13344;DHT22;6741;48.964;9.406;2024-03-02T07:16:13;2.50;99.90
13344;DHT22;6741;48.964;9.406;2024-03-02T07:18:54;2.50;99.90
13344;DHT22;6741;48.964;9.406;2024-03-02T07:21:22;2.60;99.90
13344;DHT22;6741;48.964;9.406;2024-03-02T07:23:49;2.70;99.90
13344;DHT22;6741;48.964;9.406;2024-03-02T07:26:15;2.70;99.90
13344;DHT22;6741;48.964;9.406;2024-03-02T07:28:43;2.80;99.90
13344;DHT22;6741;48.964;9.406;2024-03-02T07:31:12;2.90;99.90
13344;DHT22;6741;48.964;9.406;2024-03-02T07:33:38;3.10;99.90
13344;DHT22;6741;48.964;9.406;2024-03-02T07:36:06;3.20;99.90
13344;DHT22;6741;48.964;9.406;2024-03-02T07:38:34;3.00;99.90
13344;DHT22;6741;48.964;9.406;2024-03-02T07:41:01;3.10;99.90
13344;DHT22;6741;48.964;9.406;2024-03-02T07:43:28;3.10;99.90
13344;DHT22;6741;48.964;9.406;2024-03-02T07:45:55;3.30;99.90
13344;DHT22;6741;48.964;9.406;2024-03-02T07:48:24;3.50;99.90
13344;DHT22;6741;48.964;9.406;2024-03-02T07:50:51;3.80;99.90
13344;DHT22;6741;48.964;9.406;2024-03-02T07:53:18;4.00;99.90
13344;DHT22;6741;48.964;9.406;2024-03-02T07:55:45;4.10;99.90
13344;DHT22;6741;48.964;9.406;2024-03-02T07:58:12;4.10;99.90
13344;DHT22;6741;48.964;9.406;2024-03-02T08:00:40;4.10;99.90
13344;DHT22;6741;48.964;9.406;2024-03-02T08:03:08;4.10;99.90
13344;DHT22;6741;48.964;9.406;2024-03-02T08:05:38;4.30;99.90
13344;DHT22;6741;48.964;9.406;2024-03-02T08:08:05;4.60;99.90
13344;DHT22;6741;48.964;9.406;2024-03-02T08:10:33;4.70;99.90
13344;DHT22;6741;48.964;9.406;2024-03-02T08:13:00;4.80;99.90
13344;DHT22;6741;48.964;9.406;2024-03-02T08:15:27;5.00;99.90
13344;DHT22;6741;48.964;9.406;2024-03-02T08:17:54;5.10;99.90
13344;DHT22;6741;48.964;9.406;2024-03-02T08:20:21;5.30;99.90
13344;DHT22;6741;48.964;9.406;2024-03-02T08:22:50;5.30;99.90
13344;DHT22;6741;48.964;9.406;2024-03-02T08:25:20;5.40;99.90
13344;DHT22;6741;48.964;9.406;2024-03-02T08:27:47;5.30;99.90
13344;DHT22;6741;48.964;9.406;2024-03-02T08:30:14;5.50;99.90
13344;DHT22;6741;48.964;9.406;2024-03-02T08:32:42;5.60;99.90
13344;DHT22;6741;48.964;9.406;2024-03-02T08:35:10;5.80;99.90
13344;DHT22;6741;48.964;9.406;2024-03-02T08:37:39;5.90;99.90
13344;DHT22;6741;48.964;9.406;2024-03-02T08:40:08;6.00;99.90
13344;DHT22;6741;48.964;9.406;2024-03-02T08:42:36;6.10;99.90
13344;DHT22;6741;48.964;9.406;2024-03-02T08:45:03;6.20;99.90
13344;DHT22;6741;48.964;9.406;2024-03-02T08:47:30;6.30;99.90
13344;DHT22;6741;48.964;9.406;2024-03-02T08:49:57;6.30;99.90
13344;DHT22;6741;48.964;9.406;2024-03-02T08:52:24;6.40;99.90
13344;DHT22;6741;48.964;9.406;2024-03-02T08:54:51;6.50;99.90
13344;DHT22;6741;48.964;9.406;2024-03-02T08:57:19;6.50;99.90
13344;DHT22;6741;48.964;9.406;2024-03-02T08:59:46;6.50;99.90
13344;DHT22;6741;48.964;9.406;2024-03-02T09:02:13;6.60;99.90
13344;DHT22;6741;48.964;9.406;2024-03-02T09:04:40;6.70;99.90
13344;DHT22;6741;48.964;9.406;2024-03-02T09:07:07;6.70;99.90
13344;DHT22;6741;48.964;9.406;2024-03-02T09:09:34;6.80;99.90
13344;DHT22;6741;48.964;9.406;2024-03-02T09:12:01;6.90;99.90
13344;DHT22;6741;48.964;9.406;2024-03-02T09:14:29;6.90;99.90
13344;DHT22;6741;48.964;9.406;2024-03-02T09:16:56;6.90;99.90
13344;DHT22;6741;48.964;9.406;2024-03-02T09:19:23;7.00;99.90
13344;DHT22;6741;48.964;9.406;2024-03-02T09:21:50;7.00;99.90
13344;DHT22;6741;48.964;9.406;2024-03-02T09:24:17;7.00;99.90
13344;DHT22;6741;48.964;9.406;2024-03-02T09:26:44;7.20;99.90
13344;DHT22;6741;48.964;9.406;2024-03-02T09:29:10;7.20;99.90
13344;DHT22;6741;48.964;9.406;2024-03-02T09:31:40;7.30;99.90
13344;DHT22;6741;48.964;9.406;2024-03-02T09:34:07;7.50;99.90
13344;DHT22;6741;48.964;9.406;2024-03-02T09:36:34;7.70;99.90
13344;DHT22;6741;48.964;9.406;2024-03-02T09:39:01;7.90;99.90
13344;DHT22;6741;48.964;9.406;2024-03-02T09:41:29;8.10;99.90
13344;DHT22;6741;48.964;9.406;2024-03-02T09:43:56;8.30;99.90
13344;DHT22;6741;48.964;9.406;2024-03-02T09:46:24;8.40;99.90
13344;DHT22;6741;48.964;9.406;2024-03-02T09:48:53;8.70;99.90
13344;DHT22;6741;48.964;9.406;2024-03-02T09:51:20;8.90;99.90
13344;DHT22;6741;48.964;9.406;2024-03-02T09:53:47;9.10;99.90
13344;DHT22;6741;48.964;9.406;2024-03-02T09:56:15;9.40;99.90
13344;DHT22;6741;48.964;9.406;2024-03-02T09:58:44;9.80;99.90
13344;DHT22;6741;48.964;9.406;2024-03-02T10:01:11;10.10;99.90
13344;DHT22;6741;48.964;9.406;2024-03-02T10:03:38;10.50;97.70
13344;DHT22;6741;48.964;9.406;2024-03-02T10:06:22;10.80;1.00
13344;DHT22;6741;48.964;9.406;2024-03-02T10:08:49;11.10;1.00
13344;DHT22;6741;48.964;9.406;2024-03-02T10:11:26;11.50;99.90
13344;DHT22;6741;48.964;9.406;2024-03-02T10:14:13;11.80;99.90
13344;DHT22;6741;48.964;9.406;2024-03-02T10:16:42;12.20;99.90
13344;DHT22;6741;48.964;9.406;2024-03-02T10:19:19;12.40;1.00
13344;DHT22;6741;48.964;9.406;2024-03-02T10:21:49;12.60;1.00
13344;DHT22;6741;48.964;9.406;2024-03-02T10:24:16;12.90;1.00
13344;DHT22;6741;48.964;9.406;2024-03-02T10:26:43;13.30;99.90
13344;DHT22;6741;48.964;9.406;2024-03-02T10:29:11;13.50;1.00
13344;DHT22;6741;48.964;9.406;2024-03-02T10:31:38;14.00;22.50
13344;DHT22;6741;48.964;9.406;2024-03-02T10:34:06;14.40;1.00
13344;DHT22;6741;48.964;9.406;2024-03-02T10:36:33;14.60;1.00
13344;DHT22;6741;48.964;9.406;2024-03-02T10:39:04;15.20;1.00
13344;DHT22;6741;48.964;9.406;2024-03-02T10:41:33;15.60;1.00
13344;DHT22;6741;48.964;9.406;2024-03-02T10:44:02;16.20;1.00
13344;DHT22;6741;48.964;9.406;2024-03-02T10:46:30;16.00;1.00
13344;DHT22;6741;48.964;9.406;2024-03-02T10:48:57;16.30;1.00
13344;DHT22;6741;48.964;9.406;2024-03-02T10:51:25;17.10;1.00
13344;DHT22;6741;48.964;9.406;2024-03-02T10:53:53;17.50;1.00
13344;DHT22;6741;48.964;9.406;2024-03-02T10:56:27;17.60;1.00
13344;DHT22;6741;48.964;9.406;2024-03-02T10:59:01;17.70;1.00
13344;DHT22;6741;48.964;9.406;2024-03-02T11:01:29;18.30;1.00
13344;DHT22;6741;48.964;9.406;2024-03-02T11:03:57;17.80;1.00
13344;DHT22;6741;48.964;9.406;2024-03-02T11:06:26;18.30;1.00
13344;DHT22;6741;48.964;9.406;2024-03-02T11:08:55;18.60;17.60
13344;DHT22;6741;48.964;9.406;2024-03-02T11:11:30;18.80;68.70
13344;DHT22;6741;48.964;9.406;2024-03-02T11:14:01;18.60;92.30
13344;DHT22;6741;48.964;9.406;2024-03-02T11:16:34;18.80;99.90
13344;DHT22;6741;48.964;9.406;2024-03-02T11:19:04;19.40;99.90
13344;DHT22;6741;48.964;9.406;2024-03-02T11:21:32;19.50;99.90
13344;DHT22;6741;48.964;9.406;2024-03-02T11:23:59;19.50;98.90
13344;DHT22;6741;48.964;9.406;2024-03-02T11:26:29;19.80;98.30
13344;DHT22;6741;48.964;9.406;2024-03-02T11:29:04;20.80;99.90
13344;DHT22;6741;48.964;9.406;2024-03-02T11:32:01;21.40;97.30
13344;DHT22;6741;48.964;9.406;2024-03-02T11:34:32;21.40;92.80
13344;DHT22;6741;48.964;9.406;2024-03-02T11:36:59;21.70;92.60
13344;DHT22;6741;48.964;9.406;2024-03-02T11:39:26;21.80;90.10
13344;DHT22;6741;48.964;9.406;2024-03-02T11:41:54;22.20;89.10
13344;DHT22;6741;48.964;9.406;2024-03-02T11:44:21;22.20;84.60
13344;DHT22;6741;48.964;9.406;2024-03-02T11:46:52;22.80;87.60
13344;DHT22;6741;48.964;9.406;2024-03-02T11:49:37;23.90;87.80
13344;DHT22;6741;48.964;9.406;2024-03-02T11:52:05;24.40;81.10
13344;DHT22;6741;48.964;9.406;2024-03-02T11:54:33;24.40;75.50
13344;DHT22;6741;48.964;9.406;2024-03-02T11:57:03;24.70;77.70
13344;DHT22;6741;48.964;9.406;2024-03-02T11:59:30;24.50;73.00
13344;DHT22;6741;48.964;9.406;2024-03-02T12:01:58;24.20;70.90
13344;DHT22;6741;48.964;9.406;2024-03-02T12:04:26;24.20;73.20
13344;DHT22;6741;48.964;9.406;2024-03-02T12:06:57;24.40;73.50
13344;DHT22;6741;48.964;9.406;2024-03-02T12:09:26;25.00;72.90
13344;DHT22;6741;48.964;9.406;2024-03-02T12:12:08;25.50;71.50
13344;DHT22;6741;48.964;9.406;2024-03-02T12:14:36;24.60;67.90
13344;DHT22;6741;48.964;9.406;2024-03-02T12:17:04;24.00;64.30
13344;DHT22;6741;48.964;9.406;2024-03-02T12:19:32;24.50;65.40
13344;DHT22;6741;48.964;9.406;2024-03-02T12:21:59;25.60;63.20
13344;DHT22;6741;48.964;9.406;2024-03-02T12:24:27;24.50;59.60
13344;DHT22;6741;48.964;9.406;2024-03-02T12:26:55;23.80;61.10
13344;DHT22;6741;48.964;9.406;2024-03-02T12:29:24;23.60;64.40
13344;DHT22;6741;48.964;9.406;2024-03-02T12:31:52;24.50;64.30
13344;DHT22;6741;48.964;9.406;2024-03-02T12:34:19;25.00;61.10
13344;DHT22;6741;48.964;9.406;2024-03-02T12:36:46;25.10;60.70
13344;DHT22;6741;48.964;9.406;2024-03-02T12:39:15;24.50;60.70
13344;DHT22;6741;48.964;9.406;2024-03-02T12:41:43;23.50;61.60
13344;DHT22;6741;48.964;9.406;2024-03-02T12:44:10;23.70;61.90
13344;DHT22;6741;48.964;9.406;2024-03-02T12:46:38;24.00;62.60
13344;DHT22;6741;48.964;9.406;2024-03-02T12:49:08;24.30;60.20
13344;DHT22;6741;48.964;9.406;2024-03-02T12:51:36;24.40;58.60
13344;DHT22;6741;48.964;9.406;2024-03-02T12:54:12;25.10;57.20
13344;DHT22;6741;48.964;9.406;2024-03-02T12:56:41;26.00;58.60
13344;DHT22;6741;48.964;9.406;2024-03-02T12:59:17;26.20;53.70
13344;DHT22;6741;48.964;9.406;2024-03-02T13:01:51;26.10;54.80
13344;DHT22;6741;48.964;9.406;2024-03-02T13:04:22;26.90;57.80
13344;DHT22;6741;48.964;9.406;2024-03-02T13:06:49;27.00;54.30
13344;DHT22;6741;48.964;9.406;2024-03-02T13:09:17;27.90;50.80
13344;DHT22;6741;48.964;9.406;2024-03-02T13:11:44;28.80;49.30
13344;DHT22;6741;48.964;9.406;2024-03-02T13:14:11;28.60;48.30
13344;DHT22;6741;48.964;9.406;2024-03-02T13:16:38;28.90;42.70
13344;DHT22;6741;48.964;9.406;2024-03-02T13:19:08;28.20;40.60
13344;DHT22;6741;48.964;9.406;2024-03-02T13:21:35;28.60;43.40
13344;DHT22;6741;48.964;9.406;2024-03-02T13:24:03;28.50;43.50
13344;DHT22;6741;48.964;9.406;2024-03-02T13:26:31;28.10;42.30
13344;DHT22;6741;48.964;9.406;2024-03-02T13:28:57;28.80;39.60
13344;DHT22;6741;48.964;9.406;2024-03-02T13:31:24;28.90;36.50
13344;DHT22;6741;48.964;9.406;2024-03-02T13:33:51;28.50;36.80
13344;DHT22;6741;48.964;9.406;2024-03-02T13:36:19;28.70;36.60
13344;DHT22;6741;48.964;9.406;2024-03-02T13:38:46;28.50;34.60
13344;DHT22;6741;48.964;9.406;2024-03-02T13:41:13;27.90;32.10
13344;DHT22;6741;48.964;9.406;2024-03-02T13:43:40;27.60;32.60
13344;DHT22;6741;48.964;9.406;2024-03-02T13:46:10;28.20;33.80
13344;DHT22;6741;48.964;9.406;2024-03-02T13:48:38;28.90;30.00
13344;DHT22;6741;48.964;9.406;2024-03-02T13:51:05;29.70;30.10
13344;DHT22;6741;48.964;9.406;2024-03-02T13:53:34;29.30;28.40
13344;DHT22;6741;48.964;9.406;2024-03-02T13:56:02;28.90;27.90
13344;DHT22;6741;48.964;9.406;2024-03-02T13:58:30;29.60;28.20
13344;DHT22;6741;48.964;9.406;2024-03-02T14:00:57;30.20;25.40
13344;DHT22;6741;48.964;9.406;2024-03-02T14:03:24;29.70;22.00
13344;DHT22;6741;48.964;9.406;2024-03-02T14:05:53;29.00;23.10
13344;DHT22;6741;48.964;9.406;2024-03-02T14:08:21;29.90;23.10
13344;DHT22;6741;48.964;9.406;2024-03-02T14:10:50;30.40;24.30
13344;DHT22;6741;48.964;9.406;2024-03-02T14:13:16;31.10;22.50
13344;DHT22;6741;48.964;9.406;2024-03-02T14:15:44;30.70;21.60
13344;DHT22;6741;48.964;9.406;2024-03-02T14:18:11;30.50;20.90
13344;DHT22;6741;48.964;9.406;2024-03-02T14:20:38;30.90;20.60
13344;DHT22;6741;48.964;9.406;2024-03-02T14:23:05;31.00;19.10
13344;DHT22;6741;48.964;9.406;2024-03-02T14:25:32;30.60;17.60
13344;DHT22;6741;48.964;9.406;2024-03-02T14:28:00;30.50;16.30
13344;DHT22;6741;48.964;9.406;2024-03-02T14:30:34;29.80;16.60
13344;DHT22;6741;48.964;9.406;2024-03-02T14:33:06;30.40;15.50
13344;DHT22;6741;48.964;9.406;2024-03-02T14:35:32;30.80;15.90
13344;DHT22;6741;48.964;9.406;2024-03-02T14:38:00;30.80;15.40
13344;DHT22;6741;48.964;9.406;2024-03-02T14:40:29;30.70;14.10
13344;DHT22;6741;48.964;9.406;2024-03-02T14:42:58;31.70;13.50
13344;DHT22;6741;48.964;9.406;2024-03-02T14:45:26;32.30;14.40
13344;DHT22;6741;48.964;9.406;2024-03-02T14:47:53;31.90;12.50
13344;DHT22;6741;48.964;9.406;2024-03-02T14:50:20;30.30;12.80
13344;DHT22;6741;48.964;9.406;2024-03-02T14:52:47;31.30;12.10
13344;DHT22;6741;48.964;9.406;2024-03-02T14:55:14;30.60;13.20
13344;DHT22;6741;48.964;9.406;2024-03-02T14:57:41;29.70;13.90
13344;DHT22;6741;48.964;9.406;2024-03-02T15:00:09;27.60;13.10
13344;DHT22;6741;48.964;9.406;2024-03-02T15:02:38;27.50;15.90
13344;DHT22;6741;48.964;9.406;2024-03-02T15:05:06;27.30;15.40
13344;DHT22;6741;48.964;9.406;2024-03-02T15:07:33;26.90;13.20
13344;DHT22;6741;48.964;9.406;2024-03-02T15:10:00;26.80;14.00
13344;DHT22;6741;48.964;9.406;2024-03-02T15:12:27;25.40;14.80
13344;DHT22;6741;48.964;9.406;2024-03-02T15:14:54;25.60;16.20
13344;DHT22;6741;48.964;9.406;2024-03-02T15:17:22;25.60;16.20
13344;DHT22;6741;48.964;9.406;2024-03-02T15:19:50;24.50;16.20
13344;DHT22;6741;48.964;9.406;2024-03-02T15:22:17;23.50;16.90
13344;DHT22;6741;48.964;9.406;2024-03-02T15:24:44;21.90;14.10
13344;DHT22;6741;48.964;9.406;2024-03-02T15:27:11;20.50;17.10
13344;DHT22;6741;48.964;9.406;2024-03-02T15:29:39;19.20;20.60
13344;DHT22;6741;48.964;9.406;2024-03-02T15:32:06;17.90;21.00
13344;DHT22;6741;48.964;9.406;2024-03-02T15:34:33;17.20;23.60
13344;DHT22;6741;48.964;9.406;2024-03-02T15:37:02;16.80;24.60
13344;DHT22;6741;48.964;9.406;2024-03-02T15:39:29;16.20;27.40
13344;DHT22;6741;48.964;9.406;2024-03-02T15:41:56;15.70;32.90
13344;DHT22;6741;48.964;9.406;2024-03-02T15:44:23;15.50;31.50
13344;DHT22;6741;48.964;9.406;2024-03-02T15:46:50;15.20;31.90
13344;DHT22;6741;48.964;9.406;2024-03-02T15:49:17;14.90;36.20
13344;DHT22;6741;48.964;9.406;2024-03-02T15:51:44;14.60;36.40
13344;DHT22;6741;48.964;9.406;2024-03-02T15:54:12;14.40;40.10
13344;DHT22;6741;48.964;9.406;2024-03-02T15:56:39;14.20;44.10
13344;DHT22;6741;48.964;9.406;2024-03-02T15:59:06;14.00;45.70
13344;DHT22;6741;48.964;9.406;2024-03-02T16:01:34;13.90;47.40
13344;DHT22;6741;48.964;9.406;2024-03-02T16:04:01;13.70;52.60